• Join FlightAware (Why Join?)
  • Login
  • US Flag 
Gobble Gobble! 
12:50PM EST


 

Airport Tracker/Info


-or-


 

Live Flight TrackerFlight Track Log ✈ WIG7412 ✈ 04-Sep-2013 ✈ KRUT - KALB

Flight Track Log - Related Links

Times and Time Zones

All times are in EDT time to prevent confusion due to time zone crossing. See the WIG7412 flight status page for this flight to view local times or setup timezone preferences in your user account.

Time Position Orientation Groundspeed Altitude Reporting Facility
EDT Latitude Longitude Course Direction KTS MPH feet Rate Location/Type
10:46AM 43.5163 -72.9638 217° Southwest  Level FlightAware Approximate
10:47AM 43.5975 -72.9675 217° Southwest 140 161 6,100  Level Boston Center
10:48AM 43.6244 -72.9706 355° North 120 138 7,000 420 Climbing Boston Center
10:49AM 43.6558 -72.9739 356° North 113 130 7,000 120 Level Boston Center
10:50AM 43.6411 -73.0167 245° Southwest 72 83 7,300 300 Climbing Boston Center
10:51AM 43.6075 -73.0481 214° Southwest 98 113 7,700 360 Climbing Boston Center
10:52AM 43.5719 -73.0764 210° Southwest 129 148 8,100 120 Climbing Boston Center
10:53AM 43.5364 -73.1103 215° Southwest 149 171 8,000 -60 Descending Boston Center
10:54AM 43.5006 -73.1442 214° Southwest 160 184 8,000  Level Boston Center
10:55AM 43.4631 -73.1725 209° Southwest 160 184 8,000  Level Boston Center
10:56AM 43.4253 -73.2061 213° Southwest 165 190 8,000  Level Boston Center
10:57AM 43.3917 -73.2431 219° Southwest 165 190 8,000  Level Boston Center
10:58AM 43.3539 -73.2739 211° Southwest 170 196 8,000  Level Boston Center
10:59AM 43.3183 -73.3047 212° Southwest 170 196 8,000 -60 Level Boston Center
11:01AM 43.2658 -73.3497 212° Southwest 159 183 7,900 -240 Descending Boston Center
11:01AM 43.2364 -73.3719 209° Southwest 170 196 7,600 -420 Descending Boston Center
11:02AM 43.1883 -73.3825 189° South 165 190 7,200 -660 Descending Boston Center
11:03AM 43.1406 -73.3933 189° South 171 197 6,400 -780 Descending Boston Center
11:04AM 43.0883 -73.4039 188° South 178 205 5,700 -600 Descending Boston Center
11:05AM 43.0464 -73.4117 188° South 178 205 5,200 -720 Descending Boston Center
11:06AM 43.0006 -73.4281 195° South 178 205 4,400 -660 Descending Boston Center
11:07AM 42.9753 -73.4475 209° Southwest 161 185 4,200 -300 Descending Boston Center
11:07AM 42.9628 -73.4586 213° Southwest 173 199 4,100 -240 Descending Boston Center
11:08AM 42.9356 -73.4722 200° South 161 185 4,000 -120 Descending Boston Center
11:08AM 42.9228 -73.4836 213° Southwest 168 193 4,000 -180 Level Boston Center
11:09AM 42.8956 -73.5028 207° Southwest 154 177 3,800 -540 Descending Boston Center
11:10AM 42.8619 -73.5278 209° Southwest 150 173 3,200 -420 Descending Boston Center
11:11AM 42.8242 -73.5553 208° Southwest 150 173 3,000 -180 Descending Boston Center
11:12AM 42.8011 -73.5861 224° Southwest 132 152 2,900 -240 Descending Boston Center
11:13AM 42.7756 -73.6253 228° Southwest 133 153 2,600 -540 Descending Boston Center
11:14AM 42.7583 -73.6758 245° Southwest 145 167 1,900 -720 Descending Boston Center
11:15AM 42.7517 -73.7267 260° West 142 163 1,200 -720 Descending Boston Center
11:16AM 42.7511 -73.7747 269° West 105 121 500 -720 Descending Boston Center
11:18AM 42.7333 -73.8000 236° Southwest  Level FlightAware Approximate
11:25AM 42.7491 -73.8020 236° Southwest  Level Estimated
11:26AM 42.7491 -73.8020 236° Southwest  Level Estimated
11:27AM 42.7491 -73.8020 236° Southwest  Level Estimated